sensor_id;sensor_type;location;lat;lon;timestamp;P1;durP1;ratioP1;P2;durP2;ratioP2
69310;SDS011;56430;48.154;16.458;2024-02-04T00:02:02;2.88;;;1.00;;
69310;SDS011;56430;48.154;16.458;2024-02-04T00:04:29;2.88;;;0.80;;
69310;SDS011;56430;48.154;16.458;2024-02-04T00:06:58;2.80;;;0.93;;
69310;SDS011;56430;48.154;16.458;2024-02-04T00:09:25;2.97;;;0.90;;
69310;SDS011;56430;48.154;16.458;2024-02-04T00:11:54;2.70;;;0.80;;
69310;SDS011;56430;48.154;16.458;2024-02-04T00:14:22;2.80;;;0.95;;
69310;SDS011;56430;48.154;16.458;2024-02-04T00:16:49;2.70;;;0.93;;
69310;SDS011;56430;48.154;16.458;2024-02-04T00:19:17;5.03;;;1.00;;
69310;SDS011;56430;48.154;16.458;2024-02-04T00:21:44;2.83;;;0.90;;
69310;SDS011;56430;48.154;16.458;2024-02-04T00:24:11;3.10;;;1.00;;
69310;SDS011;56430;48.154;16.458;2024-02-04T00:26:38;2.50;;;0.90;;
69310;SDS011;56430;48.154;16.458;2024-02-04T00:29:05;2.78;;;1.10;;
69310;SDS011;56430;48.154;16.458;2024-02-04T00:31:34;2.88;;;1.00;;
69310;SDS011;56430;48.154;16.458;2024-02-04T00:34:01;2.90;;;1.10;;
69310;SDS011;56430;48.154;16.458;2024-02-04T00:36:28;3.35;;;0.98;;
69310;SDS011;56430;48.154;16.458;2024-02-04T00:38:56;2.53;;;0.88;;
69310;SDS011;56430;48.154;16.458;2024-02-04T00:41:23;2.97;;;0.93;;
69310;SDS011;56430;48.154;16.458;2024-02-04T00:43:50;3.38;;;0.80;;
69310;SDS011;56430;48.154;16.458;2024-02-04T00:46:18;2.30;;;0.87;;
69310;SDS011;56430;48.154;16.458;2024-02-04T00:48:47;2.45;;;0.90;;
69310;SDS011;56430;48.154;16.458;2024-02-04T00:51:14;2.83;;;0.98;;
69310;SDS011;56430;48.154;16.458;2024-02-04T00:53:42;3.15;;;1.00;;
69310;SDS011;56430;48.154;16.458;2024-02-04T00:56:09;2.70;;;0.95;;
69310;SDS011;56430;48.154;16.458;2024-02-04T00:58:37;3.00;;;1.10;;
69310;SDS011;56430;48.154;16.458;2024-02-04T01:01:04;3.00;;;1.00;;
69310;SDS011;56430;48.154;16.458;2024-02-04T01:03:31;2.67;;;0.95;;
69310;SDS011;56430;48.154;16.458;2024-02-04T01:06:00;2.30;;;0.73;;
69310;SDS011;56430;48.154;16.458;2024-02-04T01:08:27;3.10;;;0.95;;
69310;SDS011;56430;48.154;16.458;2024-02-04T01:10:54;3.03;;;0.70;;
69310;SDS011;56430;48.154;16.458;2024-02-04T01:13:22;3.65;;;0.70;;
69310;SDS011;56430;48.154;16.458;2024-02-04T01:15:49;2.40;;;0.80;;
69310;SDS011;56430;48.154;16.458;2024-02-04T01:18:16;2.50;;;0.90;;
69310;SDS011;56430;48.154;16.458;2024-02-04T01:20:43;2.03;;;0.80;;
69310;SDS011;56430;48.154;16.458;2024-02-04T01:23:12;3.37;;;0.87;;
69310;SDS011;56430;48.154;16.458;2024-02-04T01:25:39;2.60;;;0.90;;
69310;SDS011;56430;48.154;16.458;2024-02-04T01:28:06;2.28;;;0.73;;
69310;SDS011;56430;48.154;16.458;2024-02-04T01:30:33;2.75;;;0.70;;
69310;SDS011;56430;48.154;16.458;2024-02-04T01:33:01;1.70;;;0.50;;
69310;SDS011;56430;48.154;16.458;2024-02-04T01:35:28;2.50;;;0.70;;
69310;SDS011;56430;48.154;16.458;2024-02-04T01:37:55;2.45;;;0.68;;
69310;SDS011;56430;48.154;16.458;2024-02-04T01:40:23;3.45;;;0.60;;
69310;SDS011;56430;48.154;16.458;2024-02-04T01:42:50;3.47;;;0.90;;
69310;SDS011;56430;48.154;16.458;2024-02-04T01:45:18;2.13;;;0.60;;
69310;SDS011;56430;48.154;16.458;2024-02-04T01:47:45;2.60;;;0.70;;
69310;SDS011;56430;48.154;16.458;2024-02-04T01:50:15;2.35;;;0.60;;
69310;SDS011;56430;48.154;16.458;2024-02-04T01:52:42;2.50;;;0.80;;
69310;SDS011;56430;48.154;16.458;2024-02-04T01:55:10;2.63;;;0.70;;
69310;SDS011;56430;48.154;16.458;2024-02-04T01:57:39;3.28;;;0.70;;
69310;SDS011;56430;48.154;16.458;2024-02-04T02:00:08;2.60;;;0.80;;
69310;SDS011;56430;48.154;16.458;2024-02-04T02:02:38;2.47;;;0.70;;
69310;SDS011;56430;48.154;16.458;2024-02-04T02:05:06;3.72;;;0.70;;
69310;SDS011;56430;48.154;16.458;2024-02-04T02:07:34;2.00;;;0.57;;
69310;SDS011;56430;48.154;16.458;2024-02-04T02:10:01;3.05;;;0.73;;
69310;SDS011;56430;48.154;16.458;2024-02-04T02:12:33;3.10;;;0.57;;
69310;SDS011;56430;48.154;16.458;2024-02-04T02:15:05;2.30;;;0.80;;
69310;SDS011;56430;48.154;16.458;2024-02-04T02:17:38;3.47;;;0.82;;
69310;SDS011;56430;48.154;16.458;2024-02-04T02:20:16;1.90;;;0.80;;
69310;SDS011;56430;48.154;16.458;2024-02-04T02:22:48;3.30;;;1.10;;
69310;SDS011;56430;48.154;16.458;2024-02-04T02:25:18;3.30;;;0.90;;
69310;SDS011;56430;48.154;16.458;2024-02-04T02:27:47;2.38;;;0.90;;
69310;SDS011;56430;48.154;16.458;2024-02-04T02:30:15;2.55;;;1.00;;
69310;SDS011;56430;48.154;16.458;2024-02-04T02:32:42;3.10;;;1.10;;
69310;SDS011;56430;48.154;16.458;2024-02-04T02:35:10;2.33;;;0.98;;
69310;SDS011;56430;48.154;16.458;2024-02-04T02:37:40;3.20;;;1.30;;
69310;SDS011;56430;48.154;16.458;2024-02-04T02:40:12;2.72;;;1.00;;
69310;SDS011;56430;48.154;16.458;2024-02-04T02:42:44;3.08;;;1.20;;
69310;SDS011;56430;48.154;16.458;2024-02-04T02:45:13;2.72;;;1.02;;
69310;SDS011;56430;48.154;16.458;2024-02-04T02:47:40;4.05;;;1.10;;
69310;SDS011;56430;48.154;16.458;2024-02-04T02:50:08;3.23;;;1.20;;
69310;SDS011;56430;48.154;16.458;2024-02-04T02:52:35;3.20;;;1.23;;
69310;SDS011;56430;48.154;16.458;2024-02-04T02:55:03;3.17;;;0.90;;
69310;SDS011;56430;48.154;16.458;2024-02-04T02:57:31;2.33;;;0.90;;
69310;SDS011;56430;48.154;16.458;2024-02-04T02:59:59;4.05;;;1.33;;
69310;SDS011;56430;48.154;16.458;2024-02-04T03:02:26;2.73;;;1.00;;
69310;SDS011;56430;48.154;16.458;2024-02-04T03:04:53;3.50;;;1.20;;
69310;SDS011;56430;48.154;16.458;2024-02-04T03:07:21;2.65;;;1.20;;
69310;SDS011;56430;48.154;16.458;2024-02-04T03:09:48;3.70;;;1.40;;
69310;SDS011;56430;48.154;16.458;2024-02-04T03:12:15;3.33;;;1.00;;
69310;SDS011;56430;48.154;16.458;2024-02-04T03:14:42;2.40;;;0.87;;
69310;SDS011;56430;48.154;16.458;2024-02-04T03:17:11;2.75;;;0.77;;
69310;SDS011;56430;48.154;16.458;2024-02-04T03:19:39;3.03;;;1.17;;
69310;SDS011;56430;48.154;16.458;2024-02-04T03:22:06;2.97;;;0.90;;
69310;SDS011;56430;48.154;16.458;2024-02-04T03:24:33;3.95;;;1.00;;
69310;SDS011;56430;48.154;16.458;2024-02-04T03:27:00;3.47;;;0.90;;
69310;SDS011;56430;48.154;16.458;2024-02-04T03:29:27;3.28;;;0.93;;
69310;SDS011;56430;48.154;16.458;2024-02-04T03:31:55;3.22;;;0.90;;
69310;SDS011;56430;48.154;16.458;2024-02-04T03:34:23;2.53;;;0.80;;
69310;SDS011;56430;48.154;16.458;2024-02-04T03:36:51;3.30;;;0.98;;
69310;SDS011;56430;48.154;16.458;2024-02-04T03:39:18;2.43;;;0.83;;
69310;SDS011;56430;48.154;16.458;2024-02-04T03:41:45;2.45;;;0.70;;
69310;SDS011;56430;48.154;16.458;2024-02-04T03:44:12;3.03;;;0.82;;
69310;SDS011;56430;48.154;16.458;2024-02-04T03:46:39;4.50;;;0.73;;
69310;SDS011;56430;48.154;16.458;2024-02-04T03:49:07;2.55;;;0.77;;
69310;SDS011;56430;48.154;16.458;2024-02-04T03:51:35;2.10;;;0.70;;
69310;SDS011;56430;48.154;16.458;2024-02-04T03:54:03;2.53;;;0.73;;
69310;SDS011;56430;48.154;16.458;2024-02-04T03:56:30;3.03;;;0.77;;
69310;SDS011;56430;48.154;16.458;2024-02-04T03:58:57;3.17;;;0.77;;
69310;SDS011;56430;48.154;16.458;2024-02-04T04:01:24;2.72;;;0.70;;
69310;SDS011;56430;48.154;16.458;2024-02-04T04:03:51;3.50;;;1.10;;
69310;SDS011;56430;48.154;16.458;2024-02-04T04:06:19;2.80;;;0.80;;
69310;SDS011;56430;48.154;16.458;2024-02-04T04:08:47;2.65;;;0.85;;
69310;SDS011;56430;48.154;16.458;2024-02-04T04:11:14;3.22;;;1.00;;
69310;SDS011;56430;48.154;16.458;2024-02-04T04:13:41;2.75;;;0.90;;
69310;SDS011;56430;48.154;16.458;2024-02-04T04:16:08;2.77;;;0.97;;
69310;SDS011;56430;48.154;16.458;2024-02-04T04:18:36;2.13;;;0.75;;
69310;SDS011;56430;48.154;16.458;2024-02-04T04:21:03;3.30;;;0.93;;
69310;SDS011;56430;48.154;16.458;2024-02-04T04:23:30;2.83;;;1.00;;
69310;SDS011;56430;48.154;16.458;2024-02-04T04:25:59;2.30;;;0.70;;
69310;SDS011;56430;48.154;16.458;2024-02-04T04:28:26;3.07;;;1.00;;
69310;SDS011;56430;48.154;16.458;2024-02-04T04:30:53;2.60;;;0.80;;
69310;SDS011;56430;48.154;16.458;2024-02-04T04:33:20;3.03;;;0.95;;
69310;SDS011;56430;48.154;16.458;2024-02-04T04:35:47;3.38;;;0.95;;
69310;SDS011;56430;48.154;16.458;2024-02-04T04:38:15;3.35;;;1.27;;
69310;SDS011;56430;48.154;16.458;2024-02-04T04:40:42;2.87;;;0.90;;
69310;SDS011;56430;48.154;16.458;2024-02-04T04:43:10;2.13;;;0.68;;
69310;SDS011;56430;48.154;16.458;2024-02-04T04:45:37;2.50;;;1.00;;
69310;SDS011;56430;48.154;16.458;2024-02-04T04:48:05;2.65;;;0.90;;
69310;SDS011;56430;48.154;16.458;2024-02-04T04:50:33;3.85;;;0.90;;
69310;SDS011;56430;48.154;16.458;2024-02-04T04:53:00;2.80;;;1.07;;
69310;SDS011;56430;48.154;16.458;2024-02-04T04:55:27;3.45;;;1.00;;
69310;SDS011;56430;48.154;16.458;2024-02-04T04:57:54;5.57;;;1.70;;
69310;SDS011;56430;48.154;16.458;2024-02-04T05:00:23;4.72;;;1.50;;
69310;SDS011;56430;48.154;16.458;2024-02-04T05:02:50;11.48;;;3.13;;
69310;SDS011;56430;48.154;16.458;2024-02-04T05:05:17;3.87;;;1.20;;
69310;SDS011;56430;48.154;16.458;2024-02-04T05:07:44;5.40;;;1.42;;
69310;SDS011;56430;48.154;16.458;2024-02-04T05:10:12;4.75;;;1.52;;
69310;SDS011;56430;48.154;16.458;2024-02-04T05:12:39;5.53;;;1.77;;
69310;SDS011;56430;48.154;16.458;2024-02-04T05:15:07;2.38;;;0.63;;
69310;SDS011;56430;48.154;16.458;2024-02-04T05:17:36;2.67;;;0.60;;
69310;SDS011;56430;48.154;16.458;2024-02-04T05:20:04;2.35;;;0.57;;
69310;SDS011;56430;48.154;16.458;2024-02-04T05:22:33;3.70;;;1.08;;
69310;SDS011;56430;48.154;16.458;2024-02-04T05:25:00;3.03;;;1.00;;
69310;SDS011;56430;48.154;16.458;2024-02-04T05:27:27;2.83;;;0.88;;
69310;SDS011;56430;48.154;16.458;2024-02-04T05:29:54;2.20;;;0.63;;
69310;SDS011;56430;48.154;16.458;2024-02-04T05:32:21;1.98;;;0.43;;
69310;SDS011;56430;48.154;16.458;2024-02-04T05:34:50;2.25;;;0.70;;
69310;SDS011;56430;48.154;16.458;2024-02-04T05:37:17;1.80;;;0.32;;
69310;SDS011;56430;48.154;16.458;2024-02-04T05:39:47;1.90;;;0.50;;
69310;SDS011;56430;48.154;16.458;2024-02-04T05:42:14;2.20;;;0.57;;
69310;SDS011;56430;48.154;16.458;2024-02-04T05:44:41;1.92;;;0.50;;
69310;SDS011;56430;48.154;16.458;2024-02-04T05:47:09;1.85;;;0.40;;
69310;SDS011;56430;48.154;16.458;2024-02-04T05:49:36;2.13;;;0.32;;
69310;SDS011;56430;48.154;16.458;2024-02-04T05:52:06;1.88;;;0.50;;
69310;SDS011;56430;48.154;16.458;2024-02-04T05:54:36;2.33;;;0.57;;
69310;SDS011;56430;48.154;16.458;2024-02-04T05:57:04;2.70;;;0.47;;
69310;SDS011;56430;48.154;16.458;2024-02-04T05:59:32;2.20;;;0.40;;
69310;SDS011;56430;48.154;16.458;2024-02-04T06:01:59;2.42;;;0.45;;
69310;SDS011;56430;48.154;16.458;2024-02-04T06:04:26;2.47;;;0.57;;
69310;SDS011;56430;48.154;16.458;2024-02-04T06:06:56;2.10;;;0.40;;
69310;SDS011;56430;48.154;16.458;2024-02-04T06:09:24;2.35;;;0.55;;
69310;SDS011;56430;48.154;16.458;2024-02-04T06:11:52;2.55;;;0.73;;
69310;SDS011;56430;48.154;16.458;2024-02-04T06:14:19;2.42;;;0.57;;
69310;SDS011;56430;48.154;16.458;2024-02-04T06:16:46;3.10;;;0.68;;
69310;SDS011;56430;48.154;16.458;2024-02-04T06:19:13;2.50;;;0.80;;
69310;SDS011;56430;48.154;16.458;2024-02-04T06:21:40;2.35;;;0.63;;
69310;SDS011;56430;48.154;16.458;2024-02-04T06:24:07;2.92;;;0.93;;
69310;SDS011;56430;48.154;16.458;2024-02-04T06:26:38;2.28;;;0.65;;
69310;SDS011;56430;48.154;16.458;2024-02-04T06:29:05;2.38;;;0.70;;
69310;SDS011;56430;48.154;16.458;2024-02-04T06:31:32;2.63;;;0.87;;
69310;SDS011;56430;48.154;16.458;2024-02-04T06:33:59;2.60;;;0.70;;
69310;SDS011;56430;48.154;16.458;2024-02-04T06:36:27;2.22;;;0.60;;
69310;SDS011;56430;48.154;16.458;2024-02-04T06:38:54;2.65;;;0.70;;
69310;SDS011;56430;48.154;16.458;2024-02-04T06:41:21;2.75;;;0.90;;
69310;SDS011;56430;48.154;16.458;2024-02-04T06:43:50;3.60;;;0.90;;
69310;SDS011;56430;48.154;16.458;2024-02-04T06:46:23;3.30;;;0.90;;
69310;SDS011;56430;48.154;16.458;2024-02-04T06:48:51;2.13;;;0.68;;
69310;SDS011;56430;48.154;16.458;2024-02-04T06:51:19;4.65;;;0.80;;
69310;SDS011;56430;48.154;16.458;2024-02-04T06:53:46;2.35;;;0.70;;
69310;SDS011;56430;48.154;16.458;2024-02-04T06:56:13;2.30;;;0.60;;
69310;SDS011;56430;48.154;16.458;2024-02-04T06:58:41;2.58;;;0.70;;
69310;SDS011;56430;48.154;16.458;2024-02-04T07:01:09;2.47;;;0.70;;
69310;SDS011;56430;48.154;16.458;2024-02-04T07:03:37;2.50;;;0.82;;
69310;SDS011;56430;48.154;16.458;2024-02-04T07:06:05;2.30;;;0.60;;
69310;SDS011;56430;48.154;16.458;2024-02-04T07:08:32;3.20;;;0.70;;
69310;SDS011;56430;48.154;16.458;2024-02-04T07:11:00;1.90;;;0.50;;
69310;SDS011;56430;48.154;16.458;2024-02-04T07:13:27;2.35;;;0.68;;
69310;SDS011;56430;48.154;16.458;2024-02-04T07:15:54;2.72;;;0.90;;
69310;SDS011;56430;48.154;16.458;2024-02-04T07:18:23;2.42;;;0.60;;
69310;SDS011;56430;48.154;16.458;2024-02-04T07:20:50;2.40;;;0.70;;
69310;SDS011;56430;48.154;16.458;2024-02-04T07:23:17;2.17;;;0.70;;
69310;SDS011;56430;48.154;16.458;2024-02-04T07:25:44;2.47;;;0.70;;
69310;SDS011;56430;48.154;16.458;2024-02-04T07:28:11;2.22;;;0.65;;
69310;SDS011;56430;48.154;16.458;2024-02-04T07:30:38;1.80;;;0.50;;
69310;SDS011;56430;48.154;16.458;2024-02-04T07:33:06;2.30;;;0.70;;
69310;SDS011;56430;48.154;16.458;2024-02-04T07:35:37;2.65;;;0.60;;
69310;SDS011;56430;48.154;16.458;2024-02-04T07:38:04;2.45;;;0.60;;
69310;SDS011;56430;48.154;16.458;2024-02-04T07:40:31;1.90;;;0.45;;
69310;SDS011;56430;48.154;16.458;2024-02-04T07:42:58;2.38;;;0.60;;
69310;SDS011;56430;48.154;16.458;2024-02-04T07:45:26;2.33;;;0.83;;
69310;SDS011;56430;48.154;16.458;2024-02-04T07:47:53;2.30;;;0.60;;
69310;SDS011;56430;48.154;16.458;2024-02-04T07:50:20;1.83;;;0.52;;
69310;SDS011;56430;48.154;16.458;2024-02-04T07:52:48;2.03;;;0.60;;
69310;SDS011;56430;48.154;16.458;2024-02-04T07:55:15;2.45;;;0.60;;
69310;SDS011;56430;48.154;16.458;2024-02-04T07:57:43;2.23;;;0.57;;
69310;SDS011;56430;48.154;16.458;2024-02-04T08:00:10;2.40;;;0.60;;
69310;SDS011;56430;48.154;16.458;2024-02-04T08:02:38;2.60;;;0.80;;
69310;SDS011;56430;48.154;16.458;2024-02-04T08:05:05;2.60;;;0.40;;
69310;SDS011;56430;48.154;16.458;2024-02-04T08:07:33;2.33;;;0.63;;
69310;SDS011;56430;48.154;16.458;2024-02-04T08:10:01;1.97;;;0.30;;
69310;SDS011;56430;48.154;16.458;2024-02-04T08:12:29;2.15;;;0.50;;
69310;SDS011;56430;48.154;16.458;2024-02-04T08:14:56;1.58;;;0.30;;
69310;SDS011;56430;48.154;16.458;2024-02-04T08:17:23;1.50;;;0.30;;
69310;SDS011;56430;48.154;16.458;2024-02-04T08:19:51;1.83;;;0.30;;
69310;SDS011;56430;48.154;16.458;2024-02-04T08:22:18;1.53;;;0.40;;
69310;SDS011;56430;48.154;16.458;2024-02-04T08:24:48;1.92;;;0.30;;
69310;SDS011;56430;48.154;16.458;2024-02-04T08:27:17;1.40;;;0.30;;
69310;SDS011;56430;48.154;16.458;2024-02-04T08:29:45;2.22;;;0.30;;
69310;SDS011;56430;48.154;16.458;2024-02-04T08:32:14;2.00;;;0.30;;
69310;SDS011;56430;48.154;16.458;2024-02-04T08:34:41;1.63;;;0.27;;
69310;SDS011;56430;48.154;16.458;2024-02-04T08:37:09;1.33;;;0.20;;
69310;SDS011;56430;48.154;16.458;2024-02-04T08:39:36;1.75;;;0.22;;
69310;SDS011;56430;48.154;16.458;2024-02-04T08:42:03;4.45;;;0.68;;
69310;SDS011;56430;48.154;16.458;2024-02-04T08:44:32;1.27;;;0.13;;
69310;SDS011;56430;48.154;16.458;2024-02-04T08:46:59;2.37;;;0.10;;
69310;SDS011;56430;48.154;16.458;2024-02-04T08:49:27;2.63;;;0.20;;
69310;SDS011;56430;48.154;16.458;2024-02-04T08:51:54;1.25;;;0.10;;
69310;SDS011;56430;48.154;16.458;2024-02-04T08:54:21;3.08;;;0.13;;
69310;SDS011;56430;48.154;16.458;2024-02-04T08:56:48;1.52;;;0.10;;
69310;SDS011;56430;48.154;16.458;2024-02-04T08:59:15;1.10;;;0.10;;
69310;SDS011;56430;48.154;16.458;2024-02-04T09:01:44;1.30;;;0.20;;
69310;SDS011;56430;48.154;16.458;2024-02-04T09:04:11;1.40;;;0.20;;
69310;SDS011;56430;48.154;16.458;2024-02-04T09:06:38;1.20;;;0.10;;
69310;SDS011;56430;48.154;16.458;2024-02-04T09:09:05;1.23;;;0.28;;
69310;SDS011;56430;48.154;16.458;2024-02-04T09:11:33;1.47;;;0.30;;
69310;SDS011;56430;48.154;16.458;2024-02-04T09:14:00;1.42;;;0.20;;
69310;SDS011;56430;48.154;16.458;2024-02-04T09:16:29;0.88;;;0.10;;
69310;SDS011;56430;48.154;16.458;2024-02-04T09:18:58;1.05;;;0.10;;
69310;SDS011;56430;48.154;16.458;2024-02-04T09:21:25;1.02;;;0.10;;
69310;SDS011;56430;48.154;16.458;2024-02-04T09:23:52;1.00;;;0.20;;
69310;SDS011;56430;48.154;16.458;2024-02-04T09:26:20;1.25;;;0.20;;
69310;SDS011;56430;48.154;16.458;2024-02-04T09:28:47;1.40;;;0.30;;
69310;SDS011;56430;48.154;16.458;2024-02-04T09:31:14;1.42;;;0.20;;
69310;SDS011;56430;48.154;16.458;2024-02-04T09:33:42;1.10;;;0.10;;
69310;SDS011;56430;48.154;16.458;2024-02-04T09:36:10;1.50;;;0.20;;
69310;SDS011;56430;48.154;16.458;2024-02-04T09:38:37;1.10;;;0.20;;
69310;SDS011;56430;48.154;16.458;2024-02-04T09:41:04;0.90;;;0.10;;
69310;SDS011;56430;48.154;16.458;2024-02-04T09:43:32;1.30;;;0.20;;
69310;SDS011;56430;48.154;16.458;2024-02-04T09:45:59;1.17;;;0.20;;
69310;SDS011;56430;48.154;16.458;2024-02-04T09:48:28;1.20;;;0.20;;
69310;SDS011;56430;48.154;16.458;2024-02-04T09:50:57;1.38;;;0.20;;
69310;SDS011;56430;48.154;16.458;2024-02-04T09:53:27;1.13;;;0.20;;
69310;SDS011;56430;48.154;16.458;2024-02-04T09:55:58;1.05;;;0.20;;
69310;SDS011;56430;48.154;16.458;2024-02-04T09:58:25;0.95;;;0.13;;
69310;SDS011;56430;48.154;16.458;2024-02-04T10:00:52;1.03;;;0.10;;
69310;SDS011;56430;48.154;16.458;2024-02-04T10:03:20;1.55;;;0.20;;
69310;SDS011;56430;48.154;16.458;2024-02-04T10:05:47;1.15;;;0.20;;
69310;SDS011;56430;48.154;16.458;2024-02-04T10:08:15;1.10;;;0.20;;
69310;SDS011;56430;48.154;16.458;2024-02-04T10:10:43;1.30;;;0.20;;
69310;SDS011;56430;48.154;16.458;2024-02-04T10:13:11;3.33;;;0.20;;
69310;SDS011;56430;48.154;16.458;2024-02-04T10:15:38;1.38;;;0.15;;
69310;SDS011;56430;48.154;16.458;2024-02-04T10:18:05;1.10;;;0.15;;
69310;SDS011;56430;48.154;16.458;2024-02-04T10:20:36;1.10;;;0.20;;
69310;SDS011;56430;48.154;16.458;2024-02-04T10:23:04;1.40;;;0.30;;
69310;SDS011;56430;48.154;16.458;2024-02-04T10:25:31;1.10;;;0.17;;
69310;SDS011;56430;48.154;16.458;2024-02-04T10:27:59;1.33;;;0.30;;
69310;SDS011;56430;48.154;16.458;2024-02-04T10:30:27;1.00;;;0.20;;
69310;SDS011;56430;48.154;16.458;2024-02-04T10:32:54;1.60;;;0.20;;
69310;SDS011;56430;48.154;16.458;2024-02-04T10:35:21;1.20;;;0.20;;
69310;SDS011;56430;48.154;16.458;2024-02-04T10:37:49;1.10;;;0.20;;
69310;SDS011;56430;48.154;16.458;2024-02-04T10:40:16;1.08;;;0.17;;
69310;SDS011;56430;48.154;16.458;2024-02-04T10:42:44;1.13;;;0.10;;
69310;SDS011;56430;48.154;16.458;2024-02-04T10:45:12;1.63;;;0.30;;
69310;SDS011;56430;48.154;16.458;2024-02-04T10:47:44;1.50;;;0.10;;
69310;SDS011;56430;48.154;16.458;2024-02-04T10:50:17;0.90;;;0.10;;
69310;SDS011;56430;48.154;16.458;2024-02-04T10:52:45;0.68;;;0.10;;
69310;SDS011;56430;48.154;16.458;2024-02-04T10:55:13;0.70;;;0.10;;
69310;SDS011;56430;48.154;16.458;2024-02-04T10:57:41;0.63;;;0.00;;
69310;SDS011;56430;48.154;16.458;2024-02-04T11:00:09;0.80;;;0.10;;
69310;SDS011;56430;48.154;16.458;2024-02-04T11:02:39;0.97;;;0.10;;
69310;SDS011;56430;48.154;16.458;2024-02-04T11:05:08;0.63;;;0.10;;
69310;SDS011;56430;48.154;16.458;2024-02-04T11:07:36;0.82;;;0.10;;
69310;SDS011;56430;48.154;16.458;2024-02-04T11:10:04;0.77;;;0.10;;
69310;SDS011;56430;48.154;16.458;2024-02-04T11:12:31;0.65;;;0.03;;
69310;SDS011;56430;48.154;16.458;2024-02-04T11:15:00;0.90;;;0.10;;
69310;SDS011;56430;48.154;16.458;2024-02-04T11:17:42;0.90;;;0.10;;
69310;SDS011;56430;48.154;16.458;2024-02-04T11:20:33;0.30;;;0.00;;
69310;SDS011;56430;48.154;16.458;2024-02-04T11:23:22;0.85;;;0.08;;
69310;SDS011;56430;48.154;16.458;2024-02-04T11:26:03;0.98;;;0.08;;
69310;SDS011;56430;48.154;16.458;2024-02-04T11:28:32;0.63;;;0.03;;
69310;SDS011;56430;48.154;16.458;2024-02-04T11:30:59;0.85;;;0.05;;
69310;SDS011;56430;48.154;16.458;2024-02-04T11:33:28;1.35;;;0.17;;
69310;SDS011;56430;48.154;16.458;2024-02-04T11:35:59;0.60;;;0.00;;
69310;SDS011;56430;48.154;16.458;2024-02-04T11:38:33;0.63;;;0.00;;
69310;SDS011;56430;48.154;16.458;2024-02-04T11:41:02;0.83;;;0.00;;
69310;SDS011;56430;48.154;16.458;2024-02-04T11:43:32;0.70;;;0.00;;
69310;SDS011;56430;48.154;16.458;2024-02-04T11:45:59;0.70;;;0.10;;
69310;SDS011;56430;48.154;16.458;2024-02-04T11:48:32;0.52;;;0.00;;
69310;SDS011;56430;48.154;16.458;2024-02-04T11:51:02;1.00;;;0.10;;
69310;SDS011;56430;48.154;16.458;2024-02-04T11:53:33;2.13;;;0.10;;
69310;SDS011;56430;48.154;16.458;2024-02-04T11:56:00;0.63;;;0.00;;
69310;SDS011;56430;48.154;16.458;2024-02-04T11:58:28;1.52;;;0.10;;
69310;SDS011;56430;48.154;16.458;2024-02-04T12:00:56;1.20;;;0.10;;
69310;SDS011;56430;48.154;16.458;2024-02-04T12:03:31;2.45;;;0.43;;
69310;SDS011;56430;48.154;16.458;2024-02-04T12:05:59;1.70;;;0.30;;
69310;SDS011;56430;48.154;16.458;2024-02-04T12:08:27;0.82;;;0.10;;
69310;SDS011;56430;48.154;16.458;2024-02-04T12:10:55;1.35;;;0.20;;
69310;SDS011;56430;48.154;16.458;2024-02-04T12:13:22;2.72;;;0.20;;
69310;SDS011;56430;48.154;16.458;2024-02-04T12:15:53;1.63;;;0.20;;
69310;SDS011;56430;48.154;16.458;2024-02-04T12:18:20;2.23;;;0.30;;
69310;SDS011;56430;48.154;16.458;2024-02-04T12:20:49;1.70;;;0.10;;
69310;SDS011;56430;48.154;16.458;2024-02-04T12:23:17;0.77;;;0.10;;
69310;SDS011;56430;48.154;16.458;2024-02-04T12:25:44;1.67;;;0.30;;
69310;SDS011;56430;48.154;16.458;2024-02-04T12:28:12;1.20;;;0.13;;
69310;SDS011;56430;48.154;16.458;2024-02-04T12:30:40;3.30;;;0.20;;
69310;SDS011;56430;48.154;16.458;2024-02-04T12:33:10;1.85;;;0.20;;
69310;SDS011;56430;48.154;16.458;2024-02-04T12:35:38;2.17;;;0.30;;
69310;SDS011;56430;48.154;16.458;2024-02-04T12:38:06;0.88;;;0.10;;
69310;SDS011;56430;48.154;16.458;2024-02-04T12:40:33;1.40;;;0.20;;
69310;SDS011;56430;48.154;16.458;2024-02-04T12:43:01;1.00;;;0.10;;
69310;SDS011;56430;48.154;16.458;2024-02-04T12:45:29;3.03;;;0.30;;
69310;SDS011;56430;48.154;16.458;2024-02-04T12:47:56;4.93;;;1.38;;
69310;SDS011;56430;48.154;16.458;2024-02-04T12:50:24;1.40;;;0.20;;
69310;SDS011;56430;48.154;16.458;2024-02-04T12:53:01;1.20;;;0.10;;
69310;SDS011;56430;48.154;16.458;2024-02-04T12:55:30;1.70;;;0.10;;
69310;SDS011;56430;48.154;16.458;2024-02-04T12:58:04;1.15;;;0.13;;
69310;SDS011;56430;48.154;16.458;2024-02-04T13:00:32;1.00;;;0.10;;
69310;SDS011;56430;48.154;16.458;2024-02-04T13:02:59;1.40;;;0.15;;
69310;SDS011;56430;48.154;16.458;2024-02-04T13:05:29;2.35;;;0.20;;
69310;SDS011;56430;48.154;16.458;2024-02-04T13:07:57;0.97;;;0.10;;
69310;SDS011;56430;48.154;16.458;2024-02-04T13:10:27;1.20;;;0.20;;
69310;SDS011;56430;48.154;16.458;2024-02-04T13:13:01;1.15;;;0.20;;
69310;SDS011;56430;48.154;16.458;2024-02-04T13:15:29;1.20;;;0.20;;
69310;SDS011;56430;48.154;16.458;2024-02-04T13:17:56;1.40;;;0.20;;
69310;SDS011;56430;48.154;16.458;2024-02-04T13:20:24;1.50;;;0.20;;
69310;SDS011;56430;48.154;16.458;2024-02-04T13:22:51;1.85;;;0.30;;
69310;SDS011;56430;48.154;16.458;2024-02-04T13:25:20;1.90;;;0.38;;
69310;SDS011;56430;48.154;16.458;2024-02-04T13:27:47;1.60;;;0.20;;
69310;SDS011;56430;48.154;16.458;2024-02-04T13:30:16;1.52;;;0.30;;
69310;SDS011;56430;48.154;16.458;2024-02-04T13:32:44;1.70;;;0.30;;
69310;SDS011;56430;48.154;16.458;2024-02-04T13:35:12;1.60;;;0.30;;
69310;SDS011;56430;48.154;16.458;2024-02-04T13:37:42;4.05;;;0.40;;
69310;SDS011;56430;48.154;16.458;2024-02-04T13:40:13;2.38;;;0.40;;
69310;SDS011;56430;48.154;16.458;2024-02-04T13:42:40;2.35;;;0.30;;
69310;SDS011;56430;48.154;16.458;2024-02-04T13:45:07;1.70;;;0.30;;
69310;SDS011;56430;48.154;16.458;2024-02-04T13:47:36;1.52;;;0.30;;
69310;SDS011;56430;48.154;16.458;2024-02-04T13:50:05;1.60;;;0.30;;
69310;SDS011;56430;48.154;16.458;2024-02-04T13:52:33;1.73;;;0.30;;
69310;SDS011;56430;48.154;16.458;2024-02-04T13:55:01;1.92;;;0.43;;
69310;SDS011;56430;48.154;16.458;2024-02-04T13:57:30;2.13;;;0.50;;
69310;SDS011;56430;48.154;16.458;2024-02-04T13:59:58;2.33;;;0.40;;
69310;SDS011;56430;48.154;16.458;2024-02-04T14:02:25;1.63;;;0.22;;
69310;SDS011;56430;48.154;16.458;2024-02-04T14:04:56;2.67;;;0.40;;
69310;SDS011;56430;48.154;16.458;2024-02-04T14:07:24;2.08;;;0.30;;
69310;SDS011;56430;48.154;16.458;2024-02-04T14:09:52;2.10;;;0.40;;
69310;SDS011;56430;48.154;16.458;2024-02-04T14:12:19;1.98;;;0.40;;
69310;SDS011;56430;48.154;16.458;2024-02-04T14:14:46;1.70;;;0.30;;
69310;SDS011;56430;48.154;16.458;2024-02-04T14:17:13;3.08;;;0.38;;
69310;SDS011;56430;48.154;16.458;2024-02-04T14:19:40;1.63;;;0.40;;
69310;SDS011;56430;48.154;16.458;2024-02-04T14:22:09;2.67;;;0.40;;
69310;SDS011;56430;48.154;16.458;2024-02-04T14:24:36;1.50;;;0.30;;
69310;SDS011;56430;48.154;16.458;2024-02-04T14:27:04;2.95;;;0.60;;
69310;SDS011;56430;48.154;16.458;2024-02-04T14:29:31;2.00;;;0.20;;
69310;SDS011;56430;48.154;16.458;2024-02-04T14:31:58;2.20;;;0.43;;
69310;SDS011;56430;48.154;16.458;2024-02-04T14:34:27;2.40;;;0.60;;
69310;SDS011;56430;48.154;16.458;2024-02-04T14:36:54;2.78;;;0.40;;
69310;SDS011;56430;48.154;16.458;2024-02-04T14:39:22;2.13;;;0.43;;